createdAt,value
2023-11-09T00:00:00.391Z,84.36
2023-11-09T00:00:12.968Z,84.84
2023-11-09T00:00:24.906Z,84.30
2023-11-09T00:00:38.450Z,84.24
2023-11-09T00:00:50.673Z,84.89
2023-11-09T00:01:02.746Z,84.73
2023-11-09T00:01:14.880Z,85.07
2023-11-09T00:01:26.928Z,84.65
2023-11-09T00:01:38.968Z,85.27
2023-11-09T00:01:50.889Z,85.03
2023-11-09T00:02:02.880Z,85.48
2023-11-09T00:02:15.049Z,85.37
2023-11-09T00:02:27.080Z,84.84
2023-11-09T00:02:39.137Z,84.74
2023-11-09T00:02:51.114Z,85.39
2023-11-09T00:03:03.130Z,85.35
2023-11-09T00:03:15.191Z,85.12
2023-11-09T00:03:27.877Z,85.04
2023-11-09T00:03:39.861Z,84.98
2023-11-09T00:03:51.824Z,85.28
2023-11-09T00:04:04.962Z,85.01
2023-11-09T00:04:17.060Z,85.53
2023-11-09T00:04:29.168Z,85.62
2023-11-09T00:04:41.468Z,85.26
2023-11-09T00:04:53.558Z,85.30
2023-11-09T00:05:06.082Z,85.14
2023-11-09T00:05:18.207Z,85.25
2023-11-09T00:05:30.334Z,85.28
2023-11-09T00:05:43.083Z,85.72
2023-11-09T00:05:56.005Z,85.05
2023-11-09T00:06:08.226Z,85.30
2023-11-09T00:06:21.850Z,85.62
2023-11-09T00:06:33.828Z,85.84
2023-11-09T00:06:45.751Z,85.61
2023-11-09T00:06:57.718Z,85.40
2023-11-09T00:07:10.554Z,85.63
2023-11-09T00:07:25.151Z,85.65
2023-11-09T00:07:37.271Z,85.48
2023-11-09T00:07:49.282Z,85.30
2023-11-09T00:08:01.501Z,85.13
2023-11-09T00:08:13.481Z,85.28
2023-11-09T00:08:25.980Z,84.97
2023-11-09T00:08:38.488Z,84.52
2023-11-09T00:08:50.485Z,85.60
2023-11-09T00:09:02.724Z,85.39
2023-11-09T00:09:14.698Z,85.36
2023-11-09T00:09:26.677Z,85.59
2023-11-09T00:09:38.658Z,85.91
2023-11-09T00:09:53.149Z,85.91
2023-11-09T00:10:07.841Z,85.89
2023-11-09T00:10:19.960Z,85.29
2023-11-09T00:10:32.367Z,85.52
2023-11-09T00:10:44.327Z,85.41
2023-11-09T00:10:56.340Z,85.60
2023-11-09T00:11:08.349Z,85.53
2023-11-09T00:11:21.476Z,85.89
2023-11-09T00:11:35.853Z,85.57
2023-11-09T00:11:47.932Z,85.88
2023-11-09T00:12:00.694Z,85.57
2023-11-09T00:12:12.658Z,85.43
2023-11-09T00:12:24.641Z,85.61
2023-11-09T00:12:36.588Z,85.54
2023-11-09T00:12:52.101Z,85.59
2023-11-09T00:13:05.163Z,85.64
2023-11-09T00:13:19.640Z,85.22
2023-11-09T00:13:31.781Z,85.58
2023-11-09T00:13:44.898Z,85.03
2023-11-09T00:13:57.064Z,85.76
2023-11-09T00:14:16.227Z,85.92
2023-11-09T00:14:29.050Z,86.18
2023-11-09T00:14:41.113Z,86.13
2023-11-09T00:14:53.123Z,85.93
2023-11-09T00:15:05.537Z,86.20
2023-11-09T00:15:21.297Z,86.38
2023-11-09T00:15:33.921Z,86.33
2023-11-09T00:15:45.940Z,85.49
2023-11-09T00:15:57.959Z,85.35
2023-11-09T00:16:13.515Z,85.48
2023-11-09T00:16:25.647Z,85.79
2023-11-09T00:16:37.696Z,85.16
2023-11-09T00:16:49.666Z,85.46
2023-11-09T00:17:02.606Z,85.72
2023-11-09T00:17:15.206Z,86.22
2023-11-09T00:17:27.149Z,86.80
2023-11-09T00:17:39.244Z,86.69
2023-11-09T00:17:51.305Z,86.00
2023-11-09T00:18:03.401Z,86.46
2023-11-09T00:18:22.731Z,86.22
2023-11-09T00:18:34.656Z,86.21
2023-11-09T00:18:49.353Z,86.20
2023-11-09T00:19:01.550Z,86.36
2023-11-09T00:19:16.797Z,85.99
2023-11-09T00:19:28.844Z,86.12
2023-11-09T00:19:41.233Z,86.10
2023-11-09T00:19:53.261Z,85.72
2023-11-09T00:20:06.111Z,85.33
2023-11-09T00:20:18.122Z,85.12
2023-11-09T00:20:30.135Z,85.28
2023-11-09T00:20:42.389Z,84.73
2023-11-09T00:20:54.613Z,84.84
2023-11-09T00:21:06.702Z,84.68
2023-11-09T00:21:18.633Z,85.51
2023-11-09T00:21:30.591Z,85.54
2023-11-09T00:21:43.215Z,85.85
2023-11-09T00:21:55.322Z,85.35
2023-11-09T00:22:07.436Z,85.20
2023-11-09T00:22:21.002Z,85.51
2023-11-09T00:22:34.351Z,85.69
2023-11-09T00:22:49.425Z,85.08
2023-11-09T00:23:01.522Z,84.82
2023-11-09T00:23:13.444Z,84.86
2023-11-09T00:23:25.441Z,85.03
2023-11-09T00:23:37.439Z,85.13
2023-11-09T00:23:49.402Z,85.97
2023-11-09T00:24:01.479Z,85.62
2023-11-09T00:24:14.336Z,85.94
2023-11-09T00:24:26.259Z,85.63
2023-11-09T00:24:38.250Z,85.45
2023-11-09T00:24:50.222Z,85.29
2023-11-09T00:25:02.352Z,85.28
2023-11-09T00:25:15.100Z,85.68
2023-11-09T00:25:28.130Z,85.72
2023-11-09T00:25:40.224Z,85.16
2023-11-09T00:25:52.544Z,85.69
2023-11-09T00:26:05.013Z,85.90
2023-11-09T00:26:17.506Z,86.03
2023-11-09T00:26:29.586Z,86.28
2023-11-09T00:26:46.917Z,86.44
2023-11-09T00:26:59.682Z,86.55
2023-11-09T00:27:21.946Z,86.25
2023-11-09T00:27:34.393Z,86.04
2023-11-09T00:27:46.533Z,86.21
2023-11-09T00:27:58.572Z,86.41
2023-11-09T00:28:10.594Z,85.51
2023-11-09T00:28:22.685Z,86.31
2023-11-09T00:28:34.689Z,85.71
2023-11-09T00:28:51.490Z,86.24
2023-11-09T00:29:03.478Z,85.69
2023-11-09T00:29:16.230Z,86.17
2023-11-09T00:29:28.615Z,85.73
2023-11-09T00:29:40.982Z,86.51
2023-11-09T00:29:53.014Z,85.91
2023-11-09T00:30:07.467Z,86.06
2023-11-09T00:30:20.081Z,85.75
2023-11-09T00:30:33.674Z,86.06
2023-11-09T00:30:46.849Z,86.63
2023-11-09T00:30:58.850Z,86.91
2023-11-09T00:31:11.534Z,86.17
2023-11-09T00:31:23.728Z,86.66
2023-11-09T00:31:35.723Z,86.34
2023-11-09T00:31:48.456Z,86.45
2023-11-09T00:32:01.802Z,86.47
2023-11-09T00:32:17.421Z,86.55
2023-11-09T00:32:29.520Z,87.14
2023-11-09T00:32:41.474Z,86.77
2023-11-09T00:32:53.748Z,86.43
2023-11-09T00:33:05.799Z,86.69
2023-11-09T00:33:17.841Z,86.65
2023-11-09T00:33:29.802Z,86.70
2023-11-09T00:33:41.818Z,86.26
2023-11-09T00:33:54.046Z,86.28
2023-11-09T00:34:06.230Z,86.92
2023-11-09T00:34:18.498Z,86.87
2023-11-09T00:34:30.818Z,87.25
2023-11-09T00:34:44.928Z,86.64
2023-11-09T00:34:57.413Z,87.20
2023-11-09T00:35:10.425Z,88.03
2023-11-09T00:35:22.927Z,87.73
2023-11-09T00:35:35.021Z,87.56
2023-11-09T00:35:48.174Z,87.71
2023-11-09T00:36:00.272Z,87.36
2023-11-09T00:36:12.399Z,87.72
2023-11-09T00:36:24.472Z,88.13
2023-11-09T00:36:36.655Z,88.14
2023-11-09T00:36:48.741Z,87.93
2023-11-09T00:37:01.999Z,88.12
2023-11-09T00:37:14.369Z,87.66
2023-11-09T00:37:29.514Z,87.62
2023-11-09T00:37:42.808Z,86.89
2023-11-09T00:37:54.890Z,86.94
2023-11-09T00:38:08.921Z,87.22
2023-11-09T00:38:20.877Z,86.91
2023-11-09T00:38:32.847Z,87.47
2023-11-09T00:38:47.552Z,87.12
2023-11-09T00:38:59.671Z,87.59
2023-11-09T00:39:13.531Z,87.78
2023-11-09T00:39:26.400Z,87.27
2023-11-09T00:39:39.306Z,86.81
2023-11-09T00:39:51.301Z,86.99
2023-11-09T00:40:05.735Z,87.48
2023-11-09T00:40:17.824Z,86.96
2023-11-09T00:40:29.807Z,86.60
2023-11-09T00:40:43.077Z,86.88
2023-11-09T00:40:55.019Z,86.45
2023-11-09T00:41:07.358Z,86.71
2023-11-09T00:41:19.351Z,86.37
2023-11-09T00:41:32.027Z,86.46
2023-11-09T00:41:44.088Z,86.45
2023-11-09T00:41:56.222Z,86.55
2023-11-09T00:42:08.595Z,86.09
2023-11-09T00:42:20.622Z,86.15
2023-11-09T00:42:34.021Z,86.80
2023-11-09T00:42:45.978Z,86.26
2023-11-09T00:42:57.930Z,86.28
2023-11-09T00:43:09.928Z,86.24
2023-11-09T00:43:21.975Z,86.21
2023-11-09T00:43:34.315Z,86.21
2023-11-09T00:43:47.217Z,86.22
2023-11-09T00:43:59.261Z,86.73
2023-11-09T00:44:11.182Z,86.22
2023-11-09T00:44:23.281Z,86.61
2023-11-09T00:44:35.555Z,86.84
2023-11-09T00:44:47.519Z,86.39
2023-11-09T00:44:59.546Z,86.51
2023-11-09T00:45:11.651Z,86.55
2023-11-09T00:45:23.791Z,86.43
2023-11-09T00:45:35.874Z,87.34
2023-11-09T00:45:47.835Z,87.02
2023-11-09T00:46:01.354Z,87.85
2023-11-09T00:46:13.426Z,88.21
2023-11-09T00:46:25.524Z,87.92
2023-11-09T00:46:38.290Z,87.10
2023-11-09T00:46:50.310Z,86.94
2023-11-09T00:47:04.669Z,87.18
2023-11-09T00:47:16.845Z,87.13
2023-11-09T00:47:28.870Z,87.25
2023-11-09T00:47:41.659Z,86.65
2023-11-09T00:47:53.737Z,87.32
2023-11-09T00:48:06.360Z,87.21
2023-11-09T00:48:18.446Z,86.74
2023-11-09T00:48:30.494Z,86.74
2023-11-09T00:48:42.505Z,86.93
2023-11-09T00:48:54.827Z,87.00
2023-11-09T00:49:08.590Z,87.32
2023-11-09T00:49:20.658Z,86.98
2023-11-09T00:49:32.914Z,86.51
2023-11-09T00:49:44.925Z,86.99
2023-11-09T00:49:58.014Z,87.05
2023-11-09T00:50:10.359Z,87.05
2023-11-09T00:50:22.927Z,87.24
2023-11-09T00:50:34.922Z,86.80
2023-11-09T00:50:46.900Z,87.29
2023-11-09T00:50:58.925Z,87.35
2023-11-09T00:51:10.996Z,86.80
2023-11-09T00:51:22.948Z,86.67
2023-11-09T00:51:35.011Z,86.23
2023-11-09T00:51:46.981Z,86.69
2023-11-09T00:51:59.072Z,86.61
2023-11-09T00:52:12.398Z,86.22
2023-11-09T00:52:24.418Z,86.67
2023-11-09T00:52:36.430Z,86.45
2023-11-09T00:52:48.363Z,86.38
2023-11-09T00:53:00.496Z,86.56
2023-11-09T00:53:12.482Z,85.97
2023-11-09T00:53:24.579Z,86.43
2023-11-09T00:53:36.755Z,86.24
2023-11-09T00:53:49.585Z,85.66
2023-11-09T00:54:01.580Z,85.57
2023-11-09T00:54:13.559Z,85.33
2023-11-09T00:54:26.262Z,85.84
2023-11-09T00:54:38.235Z,85.88
2023-11-09T00:54:52.126Z,85.49
2023-11-09T00:55:04.566Z,85.51
2023-11-09T00:55:18.591Z,85.54
2023-11-09T00:55:30.825Z,85.50
2023-11-09T00:55:43.109Z,85.13
2023-11-09T00:55:55.094Z,85.71
2023-11-09T00:56:07.161Z,85.26
2023-11-09T00:56:19.126Z,85.45
2023-11-09T00:56:31.137Z,85.29
2023-11-09T00:56:43.126Z,85.38
2023-11-09T00:56:55.050Z,85.32
2023-11-09T00:57:06.987Z,85.59
2023-11-09T00:57:21.856Z,85.51
2023-11-09T00:57:34.666Z,86.06
2023-11-09T00:57:46.641Z,85.82
2023-11-09T00:57:58.656Z,85.30
2023-11-09T00:58:10.804Z,85.54
2023-11-09T00:58:24.398Z,85.79
2023-11-09T00:58:36.959Z,85.55
2023-11-09T00:58:49.117Z,85.98
2023-11-09T00:59:01.131Z,85.32
2023-11-09T00:59:13.160Z,85.66
2023-11-09T00:59:25.123Z,85.17
2023-11-09T00:59:37.128Z,85.85
2023-11-09T00:59:50.667Z,85.55
2023-11-09T01:00:04.547Z,86.07
2023-11-09T01:00:17.336Z,86.04
2023-11-09T01:00:29.397Z,85.65
2023-11-09T01:00:41.352Z,86.68
2023-11-09T01:00:53.607Z,86.09
2023-11-09T01:01:05.616Z,86.66
2023-11-09T01:01:17.678Z,86.56
2023-11-09T01:01:30.091Z,86.80
2023-11-09T01:01:42.097Z,87.01
2023-11-09T01:01:54.059Z,87.06
2023-11-09T01:02:06.655Z,87.42
2023-11-09T01:02:18.781Z,87.96
2023-11-09T01:02:35.628Z,87.94
2023-11-09T01:02:49.760Z,88.66
2023-11-09T01:03:01.918Z,88.43
2023-11-09T01:03:13.979Z,88.11
2023-11-09T01:03:26.020Z,87.92
2023-11-09T01:03:38.800Z,87.68
2023-11-09T01:03:50.889Z,87.68
2023-11-09T01:04:03.056Z,87.89
2023-11-09T01:04:15.369Z,88.05
2023-11-09T01:04:27.437Z,87.42
2023-11-09T01:04:39.575Z,87.70
2023-11-09T01:04:51.821Z,86.83
2023-11-09T01:05:04.763Z,86.81
2023-11-09T01:05:17.579Z,87.37
2023-11-09T01:05:30.306Z,86.70
2023-11-09T01:05:42.668Z,86.59
2023-11-09T01:05:55.502Z,87.21
2023-11-09T01:06:08.663Z,86.76
2023-11-09T01:06:20.704Z,86.64
2023-11-09T01:06:33.690Z,87.71
2023-11-09T01:06:45.787Z,87.59
2023-11-09T01:06:57.845Z,87.14
2023-11-09T01:07:13.009Z,86.60
2023-11-09T01:07:25.097Z,86.72
2023-11-09T01:07:37.907Z,87.29
2023-11-09T01:07:50.082Z,88.05
2023-11-09T01:08:02.011Z,88.57
2023-11-09T01:08:14.291Z,87.99
2023-11-09T01:08:26.354Z,88.08
2023-11-09T01:08:38.585Z,88.21
2023-11-09T01:08:50.545Z,88.85
2023-11-09T01:09:02.628Z,89.37
2023-11-09T01:09:15.284Z,89.18
2023-11-09T01:09:27.249Z,88.67
2023-11-09T01:09:42.219Z,88.96
2023-11-09T01:09:54.214Z,89.28
2023-11-09T01:10:06.932Z,88.89
2023-11-09T01:10:19.095Z,88.39
2023-11-09T01:10:31.124Z,88.02
2023-11-09T01:10:44.635Z,88.44
2023-11-09T01:10:57.206Z,88.41
2023-11-09T01:11:09.199Z,88.71
2023-11-09T01:11:24.926Z,88.78
2023-11-09T01:11:38.871Z,88.50
2023-11-09T01:11:50.908Z,88.52
2023-11-09T01:12:02.956Z,88.61
2023-11-09T01:12:15.005Z,88.22
2023-11-09T01:12:28.342Z,88.50
2023-11-09T01:12:40.352Z,88.40
2023-11-09T01:12:52.674Z,88.66
2023-11-09T01:13:05.449Z,88.75
2023-11-09T01:13:17.678Z,90.53
2023-11-09T01:13:29.627Z,90.80
2023-11-09T01:13:41.615Z,91.82
2023-11-09T01:13:53.560Z,91.90
2023-11-09T01:14:05.494Z,92.58
2023-11-09T01:14:21.179Z,91.79
2023-11-09T01:14:33.719Z,91.43
2023-11-09T01:14:45.656Z,91.31
2023-11-09T01:14:57.675Z,91.64
2023-11-09T01:15:09.864Z,90.89
2023-11-09T01:15:21.854Z,91.34
2023-11-09T01:15:33.809Z,91.54
2023-11-09T01:15:45.858Z,91.73
2023-11-09T01:15:58.583Z,91.69
2023-11-09T01:16:10.650Z,91.30
2023-11-09T01:16:22.630Z,91.33
2023-11-09T01:16:34.646Z,91.57
2023-11-09T01:16:46.813Z,91.89
2023-11-09T01:16:59.014Z,91.40
2023-11-09T01:17:12.445Z,91.12
2023-11-09T01:17:24.542Z,91.30
2023-11-09T01:17:39.282Z,91.09
2023-11-09T01:18:04.795Z,90.94
2023-11-09T01:18:17.082Z,90.13
2023-11-09T01:18:30.018Z,90.96
2023-11-09T01:18:42.415Z,91.39
2023-11-09T01:18:54.493Z,91.99
2023-11-09T01:19:06.632Z,92.48
2023-11-09T01:19:18.763Z,92.75
2023-11-09T01:19:31.959Z,92.86
2023-11-09T01:19:44.067Z,92.89
2023-11-09T01:19:56.229Z,92.84
2023-11-09T01:20:09.703Z,93.32
2023-11-09T01:20:21.801Z,93.27
2023-11-09T01:20:36.036Z,93.78
2023-11-09T01:20:48.136Z,93.95
2023-11-09T01:21:00.076Z,93.64
2023-11-09T01:21:12.154Z,93.69
2023-11-09T01:21:24.123Z,94.37
2023-11-09T01:21:37.525Z,94.38
2023-11-09T01:21:49.460Z,95.19
2023-11-09T01:22:01.538Z,94.61
2023-11-09T01:22:13.644Z,95.21
2023-11-09T01:22:26.772Z,95.80
2023-11-09T01:22:38.865Z,95.59
2023-11-09T01:22:50.819Z,95.28
2023-11-09T01:23:03.538Z,95.22
2023-11-09T01:23:15.528Z,94.73
2023-11-09T01:23:27.705Z,94.86
2023-11-09T01:23:39.631Z,94.73
2023-11-09T01:23:51.712Z,95.06
2023-11-09T01:24:03.732Z,94.35
2023-11-09T01:24:18.663Z,93.23
2023-11-09T01:24:30.644Z,92.14
2023-11-09T01:24:42.634Z,92.36
2023-11-09T01:24:54.659Z,91.48
2023-11-09T01:25:08.270Z,91.53
2023-11-09T01:25:20.251Z,91.19
2023-11-09T01:25:32.813Z,90.92
2023-11-09T01:25:44.896Z,91.77
2023-11-09T01:25:57.341Z,91.20
2023-11-09T01:26:10.250Z,91.59
2023-11-09T01:26:22.225Z,91.26
2023-11-09T01:26:34.281Z,91.83
2023-11-09T01:26:46.329Z,91.69
2023-11-09T01:26:58.317Z,91.38
2023-11-09T01:27:10.349Z,91.97
2023-11-09T01:27:22.383Z,91.48
2023-11-09T01:27:34.398Z,91.69
2023-11-09T01:27:46.388Z,92.04
2023-11-09T01:27:58.376Z,92.05
2023-11-09T01:28:10.526Z,92.53
2023-11-09T01:28:22.719Z,92.10
2023-11-09T01:28:34.639Z,92.41
2023-11-09T01:28:46.630Z,92.29
2023-11-09T01:28:58.610Z,91.67
2023-11-09T01:29:12.509Z,92.30
2023-11-09T01:29:24.547Z,92.25
2023-11-09T01:29:37.340Z,91.78
2023-11-09T01:29:49.435Z,92.42
2023-11-09T01:30:01.489Z,91.71
2023-11-09T01:30:13.497Z,92.37
2023-11-09T01:30:26.527Z,91.33
2023-11-09T01:30:39.872Z,91.42
2023-11-09T01:30:51.950Z,90.07
2023-11-09T01:31:04.541Z,89.52
2023-11-09T01:31:16.550Z,89.08
2023-11-09T01:31:28.580Z,89.57
2023-11-09T01:31:41.110Z,89.13
2023-11-09T01:31:55.746Z,89.84
2023-11-09T01:32:07.721Z,89.74
2023-11-09T01:32:19.688Z,89.94
2023-11-09T01:32:31.638Z,89.79
2023-11-09T01:32:43.751Z,90.10
2023-11-09T01:32:57.211Z,90.22
2023-11-09T01:33:09.246Z,89.85
2023-11-09T01:33:21.321Z,89.99
2023-11-09T01:33:33.376Z,90.30
2023-11-09T01:33:45.394Z,90.79
2023-11-09T01:34:04.786Z,90.19
2023-11-09T01:34:22.570Z,90.18
2023-11-09T01:34:34.587Z,91.00
2023-11-09T01:34:47.443Z,90.55
2023-11-09T01:35:00.505Z,90.82
2023-11-09T01:35:13.489Z,91.58
2023-11-09T01:35:25.556Z,92.06
2023-11-09T01:35:37.532Z,91.88
2023-11-09T01:35:49.511Z,92.42
2023-11-09T01:36:01.700Z,92.18
2023-11-09T01:36:16.976Z,91.34
2023-11-09T01:36:29.729Z,91.57
2023-11-09T01:36:41.764Z,90.98
2023-11-09T01:36:56.453Z,90.48
2023-11-09T01:37:12.084Z,90.38
2023-11-09T01:37:24.351Z,90.85
2023-11-09T01:37:36.369Z,90.55
2023-11-09T01:37:48.347Z,90.29
2023-11-09T01:38:00.327Z,89.86
2023-11-09T01:38:12.291Z,90.49
2023-11-09T01:38:26.436Z,91.35
2023-11-09T01:38:38.511Z,91.95
2023-11-09T01:38:50.523Z,91.52
2023-11-09T01:39:02.495Z,91.87
2023-11-09T01:39:14.483Z,91.51
2023-11-09T01:39:26.628Z,91.08
2023-11-09T01:39:40.874Z,91.04
2023-11-09T01:39:52.963Z,91.04
2023-11-09T01:40:05.652Z,90.37
2023-11-09T01:40:19.409Z,91.00
2023-11-09T01:40:31.487Z,90.80
2023-11-09T01:40:43.735Z,90.58
2023-11-09T01:40:55.812Z,90.34
2023-11-09T01:41:08.800Z,90.19
2023-11-09T01:41:20.823Z,90.03
2023-11-09T01:41:32.824Z,90.78
2023-11-09T01:41:46.506Z,90.09
2023-11-09T01:41:58.522Z,90.36
2023-11-09T01:42:11.411Z,90.27
2023-11-09T01:42:23.349Z,90.14
2023-11-09T01:42:35.281Z,90.31
2023-11-09T01:42:47.262Z,90.19
2023-11-09T01:42:59.571Z,90.50
2023-11-09T01:43:12.935Z,90.03
2023-11-09T01:43:26.493Z,89.22
2023-11-09T01:43:39.831Z,89.15
2023-11-09T01:43:55.956Z,88.40
2023-11-09T01:44:07.853Z,88.42
2023-11-09T01:44:19.901Z,87.68
2023-11-09T01:44:31.839Z,87.33
2023-11-09T01:44:43.812Z,86.91
2023-11-09T01:44:55.777Z,87.09
2023-11-09T01:45:08.736Z,87.47
2023-11-09T01:45:21.441Z,88.27
2023-11-09T01:45:33.403Z,88.23
2023-11-09T01:45:46.539Z,89.41
2023-11-09T01:45:58.944Z,89.41
2023-11-09T01:46:12.522Z,89.95
2023-11-09T01:46:28.424Z,90.92
2023-11-09T01:46:44.132Z,91.27
2023-11-09T01:46:58.350Z,91.89
2023-11-09T01:47:10.898Z,91.66
2023-11-09T01:47:23.883Z,91.74
2023-11-09T01:47:36.639Z,91.37
2023-11-09T01:47:49.179Z,91.93
2023-11-09T01:48:01.322Z,92.88
2023-11-09T01:48:15.547Z,92.50
2023-11-09T01:48:28.816Z,93.20
2023-11-09T01:48:40.875Z,92.61
2023-11-09T01:48:54.858Z,92.44
2023-11-09T01:49:07.266Z,92.43
2023-11-09T01:49:19.332Z,91.94
2023-11-09T01:49:31.727Z,91.38
2023-11-09T01:49:44.928Z,90.62
2023-11-09T01:49:57.265Z,90.97
2023-11-09T01:50:10.627Z,90.86
2023-11-09T01:50:22.719Z,91.23
2023-11-09T01:50:35.200Z,91.37
2023-11-09T01:50:49.058Z,90.99
2023-11-09T01:51:01.660Z,91.14
2023-11-09T01:51:13.616Z,91.49
2023-11-09T01:51:27.805Z,91.02
2023-11-09T01:51:41.556Z,91.73
2023-11-09T01:51:56.068Z,91.86
2023-11-09T01:52:08.696Z,91.38
2023-11-09T01:52:20.829Z,91.47
2023-11-09T01:52:33.742Z,91.74
2023-11-09T01:52:46.156Z,91.67
2023-11-09T01:52:59.477Z,91.64
2023-11-09T01:53:11.690Z,91.64
2023-11-09T01:53:23.930Z,92.48
2023-11-09T01:53:35.962Z,92.22
2023-11-09T01:53:48.911Z,92.15
2023-11-09T01:54:00.995Z,91.71
2023-11-09T01:54:13.104Z,91.69
2023-11-09T01:54:25.747Z,91.65
2023-11-09T01:54:38.377Z,91.83
2023-11-09T01:54:50.557Z,92.06
2023-11-09T01:55:03.354Z,92.27
2023-11-09T01:55:15.611Z,91.89
2023-11-09T01:55:29.831Z,91.47
2023-11-09T01:55:42.072Z,91.44
2023-11-09T01:55:55.581Z,91.49
2023-11-09T01:56:07.997Z,91.88
2023-11-09T01:56:20.612Z,91.64
2023-11-09T01:56:32.774Z,91.28
2023-11-09T01:56:44.797Z,91.40
2023-11-09T01:56:56.906Z,91.70
2023-11-09T01:57:11.933Z,91.44
2023-11-09T01:57:25.371Z,91.38
2023-11-09T01:57:39.879Z,91.55
2023-11-09T01:57:52.080Z,92.23
2023-11-09T01:58:04.725Z,92.16
2023-11-09T01:58:17.379Z,92.02
2023-11-09T01:58:29.835Z,91.15
2023-11-09T01:58:44.495Z,90.93
2023-11-09T01:58:57.333Z,91.34
2023-11-09T01:59:10.942Z,91.82
2023-11-09T01:59:24.123Z,92.12
2023-11-09T01:59:39.843Z,91.75
2023-11-09T01:59:54.145Z,92.16
2023-11-09T02:00:07.612Z,91.64
2023-11-09T02:00:20.753Z,92.03
2023-11-09T02:00:34.067Z,91.29
2023-11-09T02:00:46.854Z,90.38
2023-11-09T02:01:01.063Z,90.55
2023-11-09T02:01:14.521Z,90.19
2023-11-09T02:01:27.867Z,90.14
2023-11-09T02:01:40.678Z,89.70
2023-11-09T02:01:53.984Z,90.23
2023-11-09T02:02:06.897Z,89.46
2023-11-09T02:02:18.929Z,88.92
2023-11-09T02:02:31.331Z,89.42
2023-11-09T02:02:43.675Z,90.04
2023-11-09T02:02:57.408Z,89.60
2023-11-09T02:03:10.486Z,89.74
2023-11-09T02:03:24.306Z,89.65
2023-11-09T02:03:36.893Z,89.81
2023-11-09T02:03:48.837Z,90.70
2023-11-09T02:04:01.209Z,90.39
2023-11-09T02:04:13.442Z,90.23
2023-11-09T02:04:26.257Z,90.07
2023-11-09T02:04:38.571Z,89.89
2023-11-09T02:04:50.847Z,90.00
2023-11-09T02:05:03.160Z,90.38
2023-11-09T02:05:15.268Z,90.68
2023-11-09T02:05:27.580Z,90.06
2023-11-09T02:05:39.797Z,90.55
2023-11-09T02:05:51.837Z,90.19
2023-11-09T02:06:05.038Z,89.66
2023-11-09T02:06:19.631Z,89.35
2023-11-09T02:06:32.725Z,90.00
2023-11-09T02:06:46.714Z,89.15
2023-11-09T02:06:59.103Z,89.37
2023-11-09T02:07:11.170Z,88.72
2023-11-09T02:07:23.579Z,89.22
2023-11-09T02:07:37.176Z,88.86
2023-11-09T02:07:49.792Z,89.05
2023-11-09T02:08:02.594Z,88.68
2023-11-09T02:08:14.810Z,88.65
2023-11-09T02:08:26.853Z,88.74
2023-11-09T02:08:39.078Z,89.19
2023-11-09T02:08:53.035Z,88.87
2023-11-09T02:09:05.461Z,89.35
2023-11-09T02:09:17.636Z,89.57
2023-11-09T02:09:29.642Z,88.97
2023-11-09T02:09:43.429Z,89.81
2023-11-09T02:09:56.868Z,89.67
2023-11-09T02:10:09.471Z,89.33
2023-11-09T02:10:22.384Z,89.52
2023-11-09T02:10:36.173Z,89.10
2023-11-09T02:10:48.582Z,89.68
2023-11-09T02:11:00.568Z,89.58
2023-11-09T02:11:12.602Z,89.32
2023-11-09T02:11:25.514Z,89.24
2023-11-09T02:11:37.451Z,89.99
2023-11-09T02:11:49.765Z,89.40
2023-11-09T02:12:01.934Z,89.64
2023-11-09T02:12:13.987Z,89.40
2023-11-09T02:12:26.132Z,89.68
2023-11-09T02:12:38.620Z,89.84
2023-11-09T02:12:50.878Z,89.52
2023-11-09T02:13:03.050Z,89.65
2023-11-09T02:13:15.094Z,89.57
2023-11-09T02:13:27.359Z,89.71
2023-11-09T02:13:39.478Z,90.11
2023-11-09T02:13:51.512Z,90.11
2023-11-09T02:14:03.549Z,90.35
2023-11-09T02:14:16.646Z,91.53
2023-11-09T02:14:28.677Z,91.65
2023-11-09T02:14:40.684Z,92.26
2023-11-09T02:14:52.733Z,91.60
2023-11-09T02:15:05.812Z,91.07
2023-11-09T02:15:17.919Z,90.84
2023-11-09T02:15:30.255Z,90.71
2023-11-09T02:15:42.348Z,90.16
2023-11-09T02:15:57.028Z,90.08
2023-11-09T02:16:09.242Z,89.48
2023-11-09T02:16:21.570Z,89.61
2023-11-09T02:16:34.553Z,89.19
2023-11-09T02:16:48.376Z,89.46
2023-11-09T02:17:00.971Z,90.34
2023-11-09T02:17:13.075Z,90.21
2023-11-09T02:17:25.110Z,90.57
2023-11-09T02:17:37.217Z,90.48
2023-11-09T02:17:49.414Z,90.46
2023-11-09T02:18:01.536Z,90.37
2023-11-09T02:18:13.677Z,90.81
2023-11-09T02:18:26.526Z,90.89
2023-11-09T02:18:38.636Z,90.32
2023-11-09T02:18:50.975Z,90.02
2023-11-09T02:19:03.191Z,89.80
2023-11-09T02:19:19.654Z,89.90
2023-11-09T02:19:32.200Z,89.73
2023-11-09T02:19:46.463Z,89.63
2023-11-09T02:19:59.803Z,89.68
2023-11-09T02:20:15.310Z,89.76
2023-11-09T02:20:28.361Z,90.10
2023-11-09T02:20:41.035Z,89.91
2023-11-09T02:20:54.088Z,89.43
2023-11-09T02:21:06.866Z,88.99
2023-11-09T02:21:20.028Z,89.62
2023-11-09T02:21:32.538Z,89.23
2023-11-09T02:21:48.152Z,89.35
2023-11-09T02:22:00.789Z,89.61
2023-11-09T02:22:14.580Z,89.27
2023-11-09T02:22:28.174Z,89.37
2023-11-09T02:22:41.806Z,89.66
2023-11-09T02:22:55.497Z,89.57
2023-11-09T02:23:09.441Z,89.02
2023-11-09T02:23:24.416Z,88.86
2023-11-09T02:23:37.476Z,89.70
2023-11-09T02:23:51.386Z,88.82
2023-11-09T02:24:11.609Z,88.75
2023-11-09T02:24:23.826Z,88.63
2023-11-09T02:24:36.618Z,88.76
2023-11-09T02:24:51.865Z,88.62
2023-11-09T02:25:04.854Z,88.80
2023-11-09T02:25:16.992Z,88.88
2023-11-09T02:25:29.078Z,88.19
2023-11-09T02:25:42.227Z,88.24
2023-11-09T02:25:54.536Z,87.74
2023-11-09T02:26:08.076Z,87.23
2023-11-09T02:26:20.337Z,86.82
2023-11-09T02:26:32.781Z,87.25
2023-11-09T02:26:46.036Z,86.32
2023-11-09T02:26:58.541Z,87.44
2023-11-09T02:27:10.512Z,87.19
2023-11-09T02:27:22.490Z,87.12
2023-11-09T02:27:36.293Z,86.62
2023-11-09T02:27:48.278Z,87.44
2023-11-09T02:28:00.435Z,87.84
2023-11-09T02:28:14.237Z,88.37
2023-11-09T02:28:26.303Z,88.02
2023-11-09T02:28:38.297Z,88.27
2023-11-09T02:28:53.573Z,88.36
2023-11-09T02:29:05.532Z,88.63
2023-11-09T02:29:21.477Z,89.32
2023-11-09T02:29:33.770Z,89.38
2023-11-09T02:29:45.997Z,89.43
2023-11-09T02:29:57.956Z,88.84
2023-11-09T02:30:10.494Z,89.56
2023-11-09T02:30:22.546Z,89.02
2023-11-09T02:30:34.484Z,87.84
2023-11-09T02:30:46.489Z,87.74
2023-11-09T02:30:58.653Z,87.54
2023-11-09T02:31:10.747Z,88.07
2023-11-09T02:31:22.876Z,88.26
2023-11-09T02:31:34.909Z,88.02
2023-11-09T02:31:46.879Z,88.15
2023-11-09T02:31:58.903Z,88.21
2023-11-09T02:32:10.875Z,87.90
2023-11-09T02:32:22.845Z,88.08
2023-11-09T02:32:34.865Z,87.65
2023-11-09T02:32:47.221Z,87.27
2023-11-09T02:32:59.297Z,87.20
2023-11-09T02:33:11.696Z,86.75
2023-11-09T02:33:23.765Z,86.86
2023-11-09T02:33:35.791Z,86.76
2023-11-09T02:33:47.753Z,86.26
2023-11-09T02:34:00.934Z,86.46
2023-11-09T02:34:17.962Z,85.96
2023-11-09T02:34:32.738Z,86.79
2023-11-09T02:34:45.111Z,86.18
2023-11-09T02:34:57.844Z,86.46
2023-11-09T02:35:09.917Z,85.70
2023-11-09T02:35:22.239Z,86.09
2023-11-09T02:35:34.309Z,85.20
2023-11-09T02:35:46.423Z,85.00
2023-11-09T02:35:58.991Z,84.98
2023-11-09T02:36:12.381Z,84.76
2023-11-09T02:36:25.921Z,84.72
2023-11-09T02:36:38.567Z,84.02
2023-11-09T02:36:53.309Z,84.49
2023-11-09T02:37:09.316Z,84.21
2023-11-09T02:37:23.043Z,83.94
2023-11-09T02:37:35.625Z,83.65
2023-11-09T02:37:47.725Z,83.58
2023-11-09T02:37:59.795Z,83.24
2023-11-09T02:38:12.579Z,83.26
2023-11-09T02:38:24.496Z,83.02
2023-11-09T02:38:36.544Z,83.72
2023-11-09T02:38:48.491Z,84.62
2023-11-09T02:39:00.520Z,84.00
2023-11-09T02:39:13.612Z,84.05
2023-11-09T02:39:25.563Z,83.87
2023-11-09T02:39:37.551Z,84.01
2023-11-09T02:39:54.274Z,84.65
2023-11-09T02:40:07.333Z,84.92
2023-11-09T02:40:19.937Z,85.20
2023-11-09T02:40:32.070Z,85.22
2023-11-09T02:40:44.035Z,85.22
2023-11-09T02:40:57.497Z,85.02
2023-11-09T02:41:09.620Z,85.91
2023-11-09T02:41:21.873Z,86.61
2023-11-09T02:41:33.885Z,86.41
2023-11-09T02:41:46.476Z,86.16
2023-11-09T02:41:58.575Z,85.82
2023-11-09T02:42:12.215Z,85.00
2023-11-09T02:42:24.406Z,84.96
2023-11-09T02:42:36.380Z,84.61
2023-11-09T02:42:48.574Z,83.59
2023-11-09T02:43:00.526Z,83.79
2023-11-09T02:43:12.811Z,84.08
2023-11-09T02:43:24.839Z,83.85